Danielson, Connecticut
Current Conditions -  °F | °C
As of 12:52 AM on Sunday 23 Nov 2014 (Local Time) from KIJD Reporting Station
Broken Clouds Broken Clouds  
Wind Chill:   Ceiling: 6000
Heat Index:   Visibility: 10mi
Dew Point: -7°   Wind: 8mph
Humidity: 38%   Direction: 210°SSW
Pressure: 30.14"   Gusts: NA
Location:  41.8°N, 71.89°W
Report Text: KIJD 230552Z AUTO 21007KT 10SM BKN060 06/M07 A3014 RMK AO2 SLP205 T00611072 10067 20050 56003
Loading
Personal Weather Stations






























Interactive Weather Map New forecast layout! Learn more

10-Day Weather Forecast

Advertisements
Track Severe Weather on mobile